sensor_id;sensor_type;location;lat;lon;timestamp;P1;durP1;ratioP1;P2;durP2;ratioP2
23868;SDS011;12115;47.128;15.422;2023-05-07T00:02:13;6.85;;;4.43;;
23868;SDS011;12115;47.128;15.422;2023-05-07T00:04:40;5.53;;;4.97;;
23868;SDS011;12115;47.128;15.422;2023-05-07T00:07:07;5.90;;;4.55;;
23868;SDS011;12115;47.128;15.422;2023-05-07T00:09:35;6.97;;;4.65;;
23868;SDS011;12115;47.128;15.422;2023-05-07T00:12:03;7.20;;;5.00;;
23868;SDS011;12115;47.128;15.422;2023-05-07T00:14:30;5.10;;;4.38;;
23868;SDS011;12115;47.128;15.422;2023-05-07T00:16:57;5.60;;;4.90;;
23868;SDS011;12115;47.128;15.422;2023-05-07T00:19:24;4.18;;;3.78;;
23868;SDS011;12115;47.128;15.422;2023-05-07T00:21:51;4.88;;;3.70;;
23868;SDS011;12115;47.128;15.422;2023-05-07T00:24:20;4.65;;;3.35;;
23868;SDS011;12115;47.128;15.422;2023-05-07T00:26:47;5.15;;;2.85;;
23868;SDS011;12115;47.128;15.422;2023-05-07T00:29:14;4.80;;;2.20;;
23868;SDS011;12115;47.128;15.422;2023-05-07T00:31:40;2.45;;;2.25;;
23868;SDS011;12115;47.128;15.422;2023-05-07T00:34:07;4.72;;;3.97;;
23868;SDS011;12115;47.128;15.422;2023-05-07T00:36:34;6.18;;;4.43;;
23868;SDS011;12115;47.128;15.422;2023-05-07T00:39:02;5.82;;;5.28;;
23868;SDS011;12115;47.128;15.422;2023-05-07T00:41:29;6.35;;;4.85;;
23868;SDS011;12115;47.128;15.422;2023-05-07T00:43:57;5.78;;;5.18;;
23868;SDS011;12115;47.128;15.422;2023-05-07T00:46:24;6.43;;;4.68;;
23868;SDS011;12115;47.128;15.422;2023-05-07T00:48:52;4.68;;;4.28;;
23868;SDS011;12115;47.128;15.422;2023-05-07T00:51:19;5.18;;;4.78;;
23868;SDS011;12115;47.128;15.422;2023-05-07T00:53:46;6.78;;;4.60;;
23868;SDS011;12115;47.128;15.422;2023-05-07T00:56:14;6.15;;;4.53;;
23868;SDS011;12115;47.128;15.422;2023-05-07T00:58:41;5.47;;;3.90;;
23868;SDS011;12115;47.128;15.422;2023-05-07T01:01:09;5.45;;;4.00;;
23868;SDS011;12115;47.128;15.422;2023-05-07T01:03:36;5.13;;;3.70;;
23868;SDS011;12115;47.128;15.422;2023-05-07T01:06:03;4.65;;;3.05;;
23868;SDS011;12115;47.128;15.422;2023-05-07T01:08:32;4.03;;;2.90;;
23868;SDS011;12115;47.128;15.422;2023-05-07T01:11:01;5.63;;;2.70;;
23868;SDS011;12115;47.128;15.422;2023-05-07T01:13:28;2.60;;;2.25;;
23868;SDS011;12115;47.128;15.422;2023-05-07T01:15:56;7.10;;;2.40;;
23868;SDS011;12115;47.128;15.422;2023-05-07T01:18:23;7.95;;;2.35;;
23868;SDS011;12115;47.128;15.422;2023-05-07T01:20:52;2.60;;;2.40;;
23868;SDS011;12115;47.128;15.422;2023-05-07T01:23:19;4.03;;;2.10;;
23868;SDS011;12115;47.128;15.422;2023-05-07T01:25:53;2.72;;;2.35;;
23868;SDS011;12115;47.128;15.422;2023-05-07T01:28:23;6.43;;;2.67;;
23868;SDS011;12115;47.128;15.422;2023-05-07T01:30:52;3.28;;;2.47;;
23868;SDS011;12115;47.128;15.422;2023-05-07T01:33:22;4.82;;;2.70;;
23868;SDS011;12115;47.128;15.422;2023-05-07T01:35:51;3.53;;;1.95;;
23868;SDS011;12115;47.128;15.422;2023-05-07T01:38:22;8.40;;;2.40;;
23868;SDS011;12115;47.128;15.422;2023-05-07T01:40:50;2.42;;;2.20;;
23868;SDS011;12115;47.128;15.422;2023-05-07T01:43:18;2.40;;;2.20;;
23868;SDS011;12115;47.128;15.422;2023-05-07T01:45:45;3.50;;;2.63;;
23868;SDS011;12115;47.128;15.422;2023-05-07T01:48:13;3.15;;;2.20;;
23868;SDS011;12115;47.128;15.422;2023-05-07T01:50:42;4.88;;;2.72;;
23868;SDS011;12115;47.128;15.422;2023-05-07T01:53:10;4.05;;;2.08;;
23868;SDS011;12115;47.128;15.422;2023-05-07T01:55:37;5.07;;;2.30;;
23868;SDS011;12115;47.128;15.422;2023-05-07T01:58:04;6.20;;;2.40;;
23868;SDS011;12115;47.128;15.422;2023-05-07T02:00:31;5.05;;;1.77;;
23868;SDS011;12115;47.128;15.422;2023-05-07T02:05:43;3.25;;;1.95;;
23868;SDS011;12115;47.128;15.422;2023-05-07T02:08:21;5.32;;;2.00;;
23868;SDS011;12115;47.128;15.422;2023-05-07T02:10:48;3.53;;;1.80;;
23868;SDS011;12115;47.128;15.422;2023-05-07T02:13:18;3.53;;;1.60;;
23868;SDS011;12115;47.128;15.422;2023-05-07T02:15:46;4.20;;;1.48;;
23868;SDS011;12115;47.128;15.422;2023-05-07T02:18:17;1.95;;;1.63;;
23868;SDS011;12115;47.128;15.422;2023-05-07T02:20:44;2.10;;;1.88;;
23868;SDS011;12115;47.128;15.422;2023-05-07T02:23:12;3.05;;;1.80;;
23868;SDS011;12115;47.128;15.422;2023-05-07T02:25:39;5.07;;;1.30;;
23868;SDS011;12115;47.128;15.422;2023-05-07T02:28:06;6.88;;;1.50;;
23868;SDS011;12115;47.128;15.422;2023-05-07T02:30:47;4.10;;;1.85;;
23868;SDS011;12115;47.128;15.422;2023-05-07T02:33:14;5.88;;;1.88;;
23868;SDS011;12115;47.128;15.422;2023-05-07T02:35:42;2.55;;;1.60;;
23868;SDS011;12115;47.128;15.422;2023-05-07T02:38:11;2.65;;;1.98;;
23868;SDS011;12115;47.128;15.422;2023-05-07T02:40:39;1.98;;;1.65;;
23868;SDS011;12115;47.128;15.422;2023-05-07T02:43:07;1.83;;;1.60;;
23868;SDS011;12115;47.128;15.422;2023-05-07T02:45:36;1.77;;;1.67;;
23868;SDS011;12115;47.128;15.422;2023-05-07T02:48:05;2.08;;;1.40;;
23868;SDS011;12115;47.128;15.422;2023-05-07T02:50:33;4.50;;;1.55;;
23868;SDS011;12115;47.128;15.422;2023-05-07T02:53:01;1.52;;;1.42;;
23868;SDS011;12115;47.128;15.422;2023-05-07T02:55:29;2.15;;;1.80;;
23868;SDS011;12115;47.128;15.422;2023-05-07T02:57:56;3.63;;;1.70;;
23868;SDS011;12115;47.128;15.422;2023-05-07T03:00:25;2.90;;;1.65;;
23868;SDS011;12115;47.128;15.422;2023-05-07T03:03:07;1.80;;;1.50;;
23868;SDS011;12115;47.128;15.422;2023-05-07T03:05:34;1.70;;;1.60;;
23868;SDS011;12115;47.128;15.422;2023-05-07T03:08:01;2.20;;;1.70;;
23868;SDS011;12115;47.128;15.422;2023-05-07T03:10:29;2.03;;;1.83;;
23868;SDS011;12115;47.128;15.422;2023-05-07T03:12:57;2.25;;;2.05;;
23868;SDS011;12115;47.128;15.422;2023-05-07T03:15:24;5.82;;;2.20;;
23868;SDS011;12115;47.128;15.422;2023-05-07T03:17:52;2.60;;;2.35;;
23868;SDS011;12115;47.128;15.422;2023-05-07T03:20:19;7.30;;;2.10;;
23868;SDS011;12115;47.128;15.422;2023-05-07T03:22:48;2.42;;;1.73;;
23868;SDS011;12115;47.128;15.422;2023-05-07T03:25:16;2.10;;;1.90;;
23868;SDS011;12115;47.128;15.422;2023-05-07T03:27:43;3.53;;;1.70;;
23868;SDS011;12115;47.128;15.422;2023-05-07T03:30:10;1.90;;;1.60;;
23868;SDS011;12115;47.128;15.422;2023-05-07T03:32:39;4.53;;;1.60;;
23868;SDS011;12115;47.128;15.422;2023-05-07T03:35:10;4.70;;;1.40;;
23868;SDS011;12115;47.128;15.422;2023-05-07T03:37:38;3.78;;;1.50;;
23868;SDS011;12115;47.128;15.422;2023-05-07T03:40:06;2.47;;;1.45;;
23868;SDS011;12115;47.128;15.422;2023-05-07T03:42:41;3.65;;;1.60;;
23868;SDS011;12115;47.128;15.422;2023-05-07T03:45:10;2.13;;;1.40;;
23868;SDS011;12115;47.128;15.422;2023-05-07T03:50:11;3.35;;;2.03;;
23868;SDS011;12115;47.128;15.422;2023-05-07T03:52:54;2.50;;;2.30;;
23868;SDS011;12115;47.128;15.422;2023-05-07T03:55:22;2.95;;;2.05;;
23868;SDS011;12115;47.128;15.422;2023-05-07T03:57:55;4.95;;;1.63;;
23868;SDS011;12115;47.128;15.422;2023-05-07T04:00:25;2.83;;;1.95;;
23868;SDS011;12115;47.128;15.422;2023-05-07T04:02:56;2.72;;;2.47;;
23868;SDS011;12115;47.128;15.422;2023-05-07T04:05:26;3.85;;;1.98;;
23868;SDS011;12115;47.128;15.422;2023-05-07T04:10:33;1.85;;;1.40;;
23868;SDS011;12115;47.128;15.422;2023-05-07T04:15:32;3.25;;;1.70;;
23868;SDS011;12115;47.128;15.422;2023-05-07T04:18:03;3.65;;;1.40;;
23868;SDS011;12115;47.128;15.422;2023-05-07T04:20:30;1.60;;;1.40;;
23868;SDS011;12115;47.128;15.422;2023-05-07T04:23:05;2.83;;;1.77;;
23868;SDS011;12115;47.128;15.422;2023-05-07T04:25:33;1.65;;;1.55;;
23868;SDS011;12115;47.128;15.422;2023-05-07T04:28:09;4.28;;;1.40;;
23868;SDS011;12115;47.128;15.422;2023-05-07T04:30:39;2.83;;;1.90;;
23868;SDS011;12115;47.128;15.422;2023-05-07T04:33:06;2.05;;;1.80;;
23868;SDS011;12115;47.128;15.422;2023-05-07T04:35:35;5.00;;;2.53;;
23868;SDS011;12115;47.128;15.422;2023-05-07T04:38:04;3.88;;;2.33;;
23868;SDS011;12115;47.128;15.422;2023-05-07T04:40:32;5.38;;;2.15;;
23868;SDS011;12115;47.128;15.422;2023-05-07T04:43:02;3.47;;;2.20;;
23868;SDS011;12115;47.128;15.422;2023-05-07T04:45:32;4.68;;;2.05;;
23868;SDS011;12115;47.128;15.422;2023-05-07T04:48:00;1.95;;;1.75;;
23868;SDS011;12115;47.128;15.422;2023-05-07T04:50:29;4.45;;;1.92;;
23868;SDS011;12115;47.128;15.422;2023-05-07T04:53:00;4.30;;;1.92;;
23868;SDS011;12115;47.128;15.422;2023-05-07T04:55:28;1.50;;;1.30;;
23868;SDS011;12115;47.128;15.422;2023-05-07T04:57:55;3.78;;;1.70;;
23868;SDS011;12115;47.128;15.422;2023-05-07T05:00:25;0.65;;;0.65;;
23868;SDS011;12115;47.128;15.422;2023-05-07T05:02:54;1.10;;;1.00;;
23868;SDS011;12115;47.128;15.422;2023-05-07T05:05:25;3.45;;;1.20;;
23868;SDS011;12115;47.128;15.422;2023-05-07T05:07:56;2.95;;;1.00;;
23868;SDS011;12115;47.128;15.422;2023-05-07T05:13:32;1.40;;;1.13;;
23868;SDS011;12115;47.128;15.422;2023-05-07T05:25:16;2.67;;;2.28;;
23868;SDS011;12115;47.128;15.422;2023-05-07T05:27:44;4.30;;;2.80;;
23868;SDS011;12115;47.128;15.422;2023-05-07T05:30:12;4.22;;;1.75;;
23868;SDS011;12115;47.128;15.422;2023-05-07T05:35:37;5.40;;;2.90;;
23868;SDS011;12115;47.128;15.422;2023-05-07T05:38:09;2.88;;;2.50;;
23868;SDS011;12115;47.128;15.422;2023-05-07T05:40:37;4.68;;;2.95;;
23868;SDS011;12115;47.128;15.422;2023-05-07T05:45:57;5.60;;;2.92;;
23868;SDS011;12115;47.128;15.422;2023-05-07T05:48:26;3.95;;;2.78;;
23868;SDS011;12115;47.128;15.422;2023-05-07T05:50:53;4.80;;;2.65;;
23868;SDS011;12115;47.128;15.422;2023-05-07T05:53:20;5.15;;;4.03;;
23868;SDS011;12115;47.128;15.422;2023-05-07T05:55:47;3.05;;;2.75;;
23868;SDS011;12115;47.128;15.422;2023-05-07T05:58:16;3.33;;;2.45;;
23868;SDS011;12115;47.128;15.422;2023-05-07T06:00:49;2.45;;;2.25;;
23868;SDS011;12115;47.128;15.422;2023-05-07T06:06:23;4.60;;;2.63;;
23868;SDS011;12115;47.128;15.422;2023-05-07T06:08:50;2.92;;;2.40;;
23868;SDS011;12115;47.128;15.422;2023-05-07T06:11:23;3.58;;;2.47;;
23868;SDS011;12115;47.128;15.422;2023-05-07T06:13:51;3.53;;;2.80;;
23868;SDS011;12115;47.128;15.422;2023-05-07T06:16:19;2.10;;;1.90;;
23868;SDS011;12115;47.128;15.422;2023-05-07T06:18:47;1.80;;;1.70;;
23868;SDS011;12115;47.128;15.422;2023-05-07T06:21:15;2.50;;;2.25;;
23868;SDS011;12115;47.128;15.422;2023-05-07T06:23:42;4.22;;;2.63;;
23868;SDS011;12115;47.128;15.422;2023-05-07T06:28:59;5.88;;;2.92;;
23868;SDS011;12115;47.128;15.422;2023-05-07T06:31:29;3.55;;;2.42;;
23868;SDS011;12115;47.128;15.422;2023-05-07T06:34:02;4.15;;;3.28;;
23868;SDS011;12115;47.128;15.422;2023-05-07T06:36:33;4.70;;;2.80;;
23868;SDS011;12115;47.128;15.422;2023-05-07T06:39:09;4.38;;;2.70;;
23868;SDS011;12115;47.128;15.422;2023-05-07T06:41:36;2.95;;;2.65;;
23868;SDS011;12115;47.128;15.422;2023-05-07T06:47:20;3.27;;;2.80;;
23868;SDS011;12115;47.128;15.422;2023-05-07T06:49:51;5.82;;;2.47;;
23868;SDS011;12115;47.128;15.422;2023-05-07T06:52:31;3.33;;;2.30;;
23868;SDS011;12115;47.128;15.422;2023-05-07T06:57:52;4.35;;;2.20;;
23868;SDS011;12115;47.128;15.422;2023-05-07T07:00:21;4.75;;;2.13;;
23868;SDS011;12115;47.128;15.422;2023-05-07T07:02:53;2.80;;;2.38;;
23868;SDS011;12115;47.128;15.422;2023-05-07T07:05:24;3.97;;;2.25;;
23868;SDS011;12115;47.128;15.422;2023-05-07T07:07:51;2.83;;;2.63;;
23868;SDS011;12115;47.128;15.422;2023-05-07T07:10:21;2.88;;;2.20;;
23868;SDS011;12115;47.128;15.422;2023-05-07T07:13:01;3.80;;;2.25;;
23868;SDS011;12115;47.128;15.422;2023-05-07T07:15:59;2.97;;;2.00;;
23868;SDS011;12115;47.128;15.422;2023-05-07T07:21:20;3.78;;;2.25;;
23868;SDS011;12115;47.128;15.422;2023-05-07T07:23:48;2.90;;;2.42;;
23868;SDS011;12115;47.128;15.422;2023-05-07T07:29:23;2.83;;;2.50;;
23868;SDS011;12115;47.128;15.422;2023-05-07T07:32:25;5.03;;;2.35;;
23868;SDS011;12115;47.128;15.422;2023-05-07T07:34:53;3.38;;;2.80;;
23868;SDS011;12115;47.128;15.422;2023-05-07T07:37:21;3.40;;;2.55;;
23868;SDS011;12115;47.128;15.422;2023-05-07T07:39:48;3.15;;;2.85;;
23868;SDS011;12115;47.128;15.422;2023-05-07T07:42:15;2.90;;;2.58;;
23868;SDS011;12115;47.128;15.422;2023-05-07T07:44:56;4.20;;;2.90;;
23868;SDS011;12115;47.128;15.422;2023-05-07T07:50:21;3.53;;;2.53;;
23868;SDS011;12115;47.128;15.422;2023-05-07T07:53:08;3.75;;;2.78;;
23868;SDS011;12115;47.128;15.422;2023-05-07T07:55:39;2.75;;;2.55;;
23868;SDS011;12115;47.128;15.422;2023-05-07T07:58:09;4.72;;;2.85;;
23868;SDS011;12115;47.128;15.422;2023-05-07T08:00:37;2.67;;;2.42;;
23868;SDS011;12115;47.128;15.422;2023-05-07T08:07:01;5.93;;;3.25;;
23868;SDS011;12115;47.128;15.422;2023-05-07T08:09:31;3.70;;;3.05;;
23868;SDS011;12115;47.128;15.422;2023-05-07T08:12:00;5.38;;;2.53;;
23868;SDS011;12115;47.128;15.422;2023-05-07T08:14:31;2.90;;;2.60;;
23868;SDS011;12115;47.128;15.422;2023-05-07T08:16:59;3.92;;;2.95;;
23868;SDS011;12115;47.128;15.422;2023-05-07T08:19:26;3.45;;;3.00;;
23868;SDS011;12115;47.128;15.422;2023-05-07T08:21:54;3.50;;;2.90;;
23868;SDS011;12115;47.128;15.422;2023-05-07T08:27:18;6.57;;;3.25;;
23868;SDS011;12115;47.128;15.422;2023-05-07T08:29:45;3.88;;;2.83;;
23868;SDS011;12115;47.128;15.422;2023-05-07T08:32:18;3.72;;;3.08;;
23868;SDS011;12115;47.128;15.422;2023-05-07T08:35:04;3.75;;;3.33;;
23868;SDS011;12115;47.128;15.422;2023-05-07T08:37:32;5.13;;;3.05;;
23868;SDS011;12115;47.128;15.422;2023-05-07T08:43:05;4.05;;;3.22;;
23868;SDS011;12115;47.128;15.422;2023-05-07T08:49:06;4.55;;;3.05;;
23868;SDS011;12115;47.128;15.422;2023-05-07T08:51:35;3.75;;;2.75;;
23868;SDS011;12115;47.128;15.422;2023-05-07T08:54:02;3.92;;;3.08;;
23868;SDS011;12115;47.128;15.422;2023-05-07T08:56:37;4.38;;;3.05;;
23868;SDS011;12115;47.128;15.422;2023-05-07T08:59:06;2.90;;;2.60;;
23868;SDS011;12115;47.128;15.422;2023-05-07T09:01:34;5.38;;;3.00;;
23868;SDS011;12115;47.128;15.422;2023-05-07T09:06:51;4.35;;;2.90;;
23868;SDS011;12115;47.128;15.422;2023-05-07T09:09:21;3.35;;;2.70;;
23868;SDS011;12115;47.128;15.422;2023-05-07T09:11:58;2.90;;;2.58;;
23868;SDS011;12115;47.128;15.422;2023-05-07T09:14:28;5.00;;;3.03;;
23868;SDS011;12115;47.128;15.422;2023-05-07T09:16:58;5.68;;;3.05;;
23868;SDS011;12115;47.128;15.422;2023-05-07T09:19:26;4.05;;;2.35;;
23868;SDS011;12115;47.128;15.422;2023-05-07T09:22:00;3.63;;;2.67;;
23868;SDS011;12115;47.128;15.422;2023-05-07T09:25:27;3.53;;;1.92;;
23868;SDS011;12115;47.128;15.422;2023-05-07T09:28:03;2.58;;;2.38;;
23868;SDS011;12115;47.128;15.422;2023-05-07T09:30:39;2.40;;;2.20;;
23868;SDS011;12115;47.128;15.422;2023-05-07T09:33:08;2.40;;;2.20;;
23868;SDS011;12115;47.128;15.422;2023-05-07T09:35:39;2.42;;;2.22;;
23868;SDS011;12115;47.128;15.422;2023-05-07T09:38:11;2.35;;;2.03;;
23868;SDS011;12115;47.128;15.422;2023-05-07T09:47:08;2.20;;;2.00;;
23868;SDS011;12115;47.128;15.422;2023-05-07T09:49:43;2.40;;;2.03;;
23868;SDS011;12115;47.128;15.422;2023-05-07T09:52:18;3.20;;;2.60;;
23868;SDS011;12115;47.128;15.422;2023-05-07T09:54:50;6.43;;;2.60;;
23868;SDS011;12115;47.128;15.422;2023-05-07T09:57:25;3.25;;;2.00;;
23868;SDS011;12115;47.128;15.422;2023-05-07T09:59:58;2.05;;;1.85;;
23868;SDS011;12115;47.128;15.422;2023-05-07T10:02:48;4.03;;;1.67;;
23868;SDS011;12115;47.128;15.422;2023-05-07T10:05:29;1.90;;;1.80;;
23868;SDS011;12115;47.128;15.422;2023-05-07T10:10:56;3.15;;;1.90;;
23868;SDS011;12115;47.128;15.422;2023-05-07T10:13:26;5.20;;;1.90;;
23868;SDS011;12115;47.128;15.422;2023-05-07T10:15:57;1.90;;;1.80;;
23868;SDS011;12115;47.128;15.422;2023-05-07T10:18:39;2.72;;;1.88;;
23868;SDS011;12115;47.128;15.422;2023-05-07T10:23:50;4.28;;;1.92;;
23868;SDS011;12115;47.128;15.422;2023-05-07T10:26:29;2.72;;;2.00;;
23868;SDS011;12115;47.128;15.422;2023-05-07T10:28:59;2.42;;;2.10;;
23868;SDS011;12115;47.128;15.422;2023-05-07T10:31:48;4.35;;;1.90;;
23868;SDS011;12115;47.128;15.422;2023-05-07T10:34:26;2.22;;;1.80;;
23868;SDS011;12115;47.128;15.422;2023-05-07T10:36:59;2.30;;;1.48;;
23868;SDS011;12115;47.128;15.422;2023-05-07T10:39:28;4.97;;;1.70;;
23868;SDS011;12115;47.128;15.422;2023-05-07T10:42:06;4.90;;;1.90;;
23868;SDS011;12115;47.128;15.422;2023-05-07T10:44:40;1.63;;;1.50;;
23868;SDS011;12115;47.128;15.422;2023-05-07T10:50:26;7.22;;;1.67;;
23868;SDS011;12115;47.128;15.422;2023-05-07T11:02:08;1.73;;;1.48;;
23868;SDS011;12115;47.128;15.422;2023-05-07T11:05:22;2.00;;;1.58;;
23868;SDS011;12115;47.128;15.422;2023-05-07T11:07:58;2.42;;;1.30;;
23868;SDS011;12115;47.128;15.422;2023-05-07T11:10:49;2.13;;;1.98;;
23868;SDS011;12115;47.128;15.422;2023-05-07T11:13:42;3.25;;;1.48;;
23868;SDS011;12115;47.128;15.422;2023-05-07T11:20:03;3.67;;;1.70;;
23868;SDS011;12115;47.128;15.422;2023-05-07T11:22:43;1.60;;;1.50;;
23868;SDS011;12115;47.128;15.422;2023-05-07T11:25:30;2.33;;;1.65;;
23868;SDS011;12115;47.128;15.422;2023-05-07T11:28:06;2.42;;;1.85;;
23868;SDS011;12115;47.128;15.422;2023-05-07T11:30:42;2.13;;;1.85;;
23868;SDS011;12115;47.128;15.422;2023-05-07T11:33:11;3.63;;;1.50;;
23868;SDS011;12115;47.128;15.422;2023-05-07T11:35:43;1.65;;;1.55;;
23868;SDS011;12115;47.128;15.422;2023-05-07T11:38:14;2.92;;;1.50;;
23868;SDS011;12115;47.128;15.422;2023-05-07T11:40:50;3.08;;;1.48;;
23868;SDS011;12115;47.128;15.422;2023-05-07T11:43:20;3.05;;;1.65;;
23868;SDS011;12115;47.128;15.422;2023-05-07T11:45:47;1.50;;;1.40;;
23868;SDS011;12115;47.128;15.422;2023-05-07T11:48:16;2.17;;;1.40;;
23868;SDS011;12115;47.128;15.422;2023-05-07T11:50:49;1.75;;;1.33;;
23868;SDS011;12115;47.128;15.422;2023-05-07T11:53:24;3.75;;;1.63;;
23868;SDS011;12115;47.128;15.422;2023-05-07T11:55:52;2.58;;;1.45;;
23868;SDS011;12115;47.128;15.422;2023-05-07T11:58:20;2.22;;;1.52;;
23868;SDS011;12115;47.128;15.422;2023-05-07T12:00:49;1.85;;;1.30;;
23868;SDS011;12115;47.128;15.422;2023-05-07T12:03:16;1.98;;;1.45;;
23868;SDS011;12115;47.128;15.422;2023-05-07T12:05:44;2.38;;;1.48;;
23868;SDS011;12115;47.128;15.422;2023-05-07T12:08:15;3.10;;;1.30;;
23868;SDS011;12115;47.128;15.422;2023-05-07T12:10:43;2.28;;;1.23;;
23868;SDS011;12115;47.128;15.422;2023-05-07T12:13:15;2.92;;;1.20;;
23868;SDS011;12115;47.128;15.422;2023-05-07T12:15:42;1.40;;;1.30;;
23868;SDS011;12115;47.128;15.422;2023-05-07T12:18:10;1.55;;;1.30;;
23868;SDS011;12115;47.128;15.422;2023-05-07T12:20:37;1.83;;;1.10;;
23868;SDS011;12115;47.128;15.422;2023-05-07T12:23:05;1.65;;;1.30;;
23868;SDS011;12115;47.128;15.422;2023-05-07T12:25:35;2.75;;;1.33;;
23868;SDS011;12115;47.128;15.422;2023-05-07T12:28:03;1.40;;;1.30;;
23868;SDS011;12115;47.128;15.422;2023-05-07T12:30:37;4.10;;;1.37;;
23868;SDS011;12115;47.128;15.422;2023-05-07T12:33:05;3.45;;;1.70;;
23868;SDS011;12115;47.128;15.422;2023-05-07T12:35:35;1.73;;;1.15;;
23868;SDS011;12115;47.128;15.422;2023-05-07T12:38:09;1.38;;;1.27;;
23868;SDS011;12115;47.128;15.422;2023-05-07T12:40:48;3.05;;;1.52;;
23868;SDS011;12115;47.128;15.422;2023-05-07T12:43:25;1.88;;;1.40;;
23868;SDS011;12115;47.128;15.422;2023-05-07T12:45:54;1.65;;;1.50;;
23868;SDS011;12115;47.128;15.422;2023-05-07T12:48:23;1.58;;;1.33;;
23868;SDS011;12115;47.128;15.422;2023-05-07T12:50:50;2.47;;;1.88;;
23868;SDS011;12115;47.128;15.422;2023-05-07T12:53:19;1.98;;;1.65;;
23868;SDS011;12115;47.128;15.422;2023-05-07T12:55:49;3.55;;;1.63;;
23868;SDS011;12115;47.128;15.422;2023-05-07T12:58:18;3.65;;;1.50;;
23868;SDS011;12115;47.128;15.422;2023-05-07T13:00:56;2.40;;;1.52;;
23868;SDS011;12115;47.128;15.422;2023-05-07T13:03:30;4.03;;;2.05;;
23868;SDS011;12115;47.128;15.422;2023-05-07T13:05:59;2.30;;;1.85;;
23868;SDS011;12115;47.128;15.422;2023-05-07T13:11:00;2.13;;;1.92;;
23868;SDS011;12115;47.128;15.422;2023-05-07T13:13:31;1.70;;;1.60;;
23868;SDS011;12115;47.128;15.422;2023-05-07T13:16:00;3.28;;;2.40;;
23868;SDS011;12115;47.128;15.422;2023-05-07T13:18:30;4.40;;;2.40;;
23868;SDS011;12115;47.128;15.422;2023-05-07T13:20:58;3.53;;;2.85;;
23868;SDS011;12115;47.128;15.422;2023-05-07T13:23:26;5.53;;;3.53;;
23868;SDS011;12115;47.128;15.422;2023-05-07T13:25:54;3.88;;;3.47;;
23868;SDS011;12115;47.128;15.422;2023-05-07T13:28:25;4.15;;;3.75;;
23868;SDS011;12115;47.128;15.422;2023-05-07T13:30:52;7.45;;;4.13;;
23868;SDS011;12115;47.128;15.422;2023-05-07T13:33:21;5.15;;;4.20;;
23868;SDS011;12115;47.128;15.422;2023-05-07T13:35:48;7.30;;;5.20;;
23868;SDS011;12115;47.128;15.422;2023-05-07T13:38:15;4.97;;;4.40;;
23868;SDS011;12115;47.128;15.422;2023-05-07T13:40:42;5.10;;;4.63;;
23868;SDS011;12115;47.128;15.422;2023-05-07T13:43:09;6.15;;;5.55;;
23868;SDS011;12115;47.128;15.422;2023-05-07T13:45:37;11.18;;;4.95;;
23868;SDS011;12115;47.128;15.422;2023-05-07T13:48:04;6.00;;;4.80;;
23868;SDS011;12115;47.128;15.422;2023-05-07T13:50:31;6.50;;;5.18;;
23868;SDS011;12115;47.128;15.422;2023-05-07T13:52:58;5.60;;;4.72;;
23868;SDS011;12115;47.128;15.422;2023-05-07T13:55:25;5.10;;;4.60;;
23868;SDS011;12115;47.128;15.422;2023-05-07T13:57:55;5.13;;;4.63;;
23868;SDS011;12115;47.128;15.422;2023-05-07T14:00:27;5.25;;;4.30;;
23868;SDS011;12115;47.128;15.422;2023-05-07T14:02:55;5.25;;;4.40;;
23868;SDS011;12115;47.128;15.422;2023-05-07T14:05:23;4.50;;;4.10;;
23868;SDS011;12115;47.128;15.422;2023-05-07T14:07:51;8.60;;;4.30;;
23868;SDS011;12115;47.128;15.422;2023-05-07T14:10:18;4.63;;;4.18;;
23868;SDS011;12115;47.128;15.422;2023-05-07T14:12:46;6.03;;;4.18;;
23868;SDS011;12115;47.128;15.422;2023-05-07T14:15:14;5.63;;;3.70;;
23868;SDS011;12115;47.128;15.422;2023-05-07T14:17:42;5.13;;;3.38;;
23868;SDS011;12115;47.128;15.422;2023-05-07T14:20:10;4.45;;;3.50;;
23868;SDS011;12115;47.128;15.422;2023-05-07T14:22:38;3.60;;;2.95;;
23868;SDS011;12115;47.128;15.422;2023-05-07T14:25:05;5.07;;;3.50;;
23868;SDS011;12115;47.128;15.422;2023-05-07T14:27:33;3.88;;;3.58;;
23868;SDS011;12115;47.128;15.422;2023-05-07T14:30:00;3.65;;;3.20;;
23868;SDS011;12115;47.128;15.422;2023-05-07T14:32:27;4.45;;;3.47;;
23868;SDS011;12115;47.128;15.422;2023-05-07T14:34:54;3.42;;;3.13;;
23868;SDS011;12115;47.128;15.422;2023-05-07T14:37:21;6.20;;;3.50;;
23868;SDS011;12115;47.128;15.422;2023-05-07T14:39:48;3.85;;;3.17;;
23868;SDS011;12115;47.128;15.422;2023-05-07T14:42:16;3.50;;;3.15;;
23868;SDS011;12115;47.128;15.422;2023-05-07T14:44:44;3.95;;;3.13;;
23868;SDS011;12115;47.128;15.422;2023-05-07T14:47:12;4.93;;;3.05;;
23868;SDS011;12115;47.128;15.422;2023-05-07T14:49:41;4.10;;;3.35;;
23868;SDS011;12115;47.128;15.422;2023-05-07T14:52:08;5.10;;;3.35;;
23868;SDS011;12115;47.128;15.422;2023-05-07T14:54:37;3.63;;;3.33;;
23868;SDS011;12115;47.128;15.422;2023-05-07T14:57:04;3.80;;;3.30;;
23868;SDS011;12115;47.128;15.422;2023-05-07T14:59:32;5.07;;;3.42;;
23868;SDS011;12115;47.128;15.422;2023-05-07T15:02:00;3.90;;;3.50;;
23868;SDS011;12115;47.128;15.422;2023-05-07T15:04:31;4.18;;;3.72;;
23868;SDS011;12115;47.128;15.422;2023-05-07T15:06:58;4.28;;;3.67;;
23868;SDS011;12115;47.128;15.422;2023-05-07T15:09:25;3.65;;;3.25;;
23868;SDS011;12115;47.128;15.422;2023-05-07T15:11:52;4.25;;;3.55;;
23868;SDS011;12115;47.128;15.422;2023-05-07T15:14:19;4.70;;;4.25;;
23868;SDS011;12115;47.128;15.422;2023-05-07T15:16:48;6.10;;;4.20;;
23868;SDS011;12115;47.128;15.422;2023-05-07T15:19:15;4.85;;;4.35;;
23868;SDS011;12115;47.128;15.422;2023-05-07T15:21:43;4.50;;;4.07;;
23868;SDS011;12115;47.128;15.422;2023-05-07T15:24:10;4.97;;;4.50;;
23868;SDS011;12115;47.128;15.422;2023-05-07T15:26:38;6.63;;;4.50;;
23868;SDS011;12115;47.128;15.422;2023-05-07T15:29:05;4.38;;;3.80;;
23868;SDS011;12115;47.128;15.422;2023-05-07T15:31:36;4.35;;;3.90;;
23868;SDS011;12115;47.128;15.422;2023-05-07T15:34:05;4.78;;;4.35;;
23868;SDS011;12115;47.128;15.422;2023-05-07T15:36:33;4.72;;;4.28;;
23868;SDS011;12115;47.128;15.422;2023-05-07T15:39:01;8.50;;;4.05;;
23868;SDS011;12115;47.128;15.422;2023-05-07T15:41:29;4.63;;;3.70;;
23868;SDS011;12115;47.128;15.422;2023-05-07T15:43:57;4.38;;;3.97;;
23868;SDS011;12115;47.128;15.422;2023-05-07T15:46:25;4.68;;;3.67;;
23868;SDS011;12115;47.128;15.422;2023-05-07T15:48:53;5.35;;;3.90;;
23868;SDS011;12115;47.128;15.422;2023-05-07T15:51:21;5.32;;;4.22;;
23868;SDS011;12115;47.128;15.422;2023-05-07T15:53:49;7.00;;;5.10;;
23868;SDS011;12115;47.128;15.422;2023-05-07T15:56:18;46.25;;;32.30;;
23868;SDS011;12115;47.128;15.422;2023-05-07T15:58:45;22.65;;;15.63;;
23868;SDS011;12115;47.128;15.422;2023-05-07T16:01:14;17.08;;;13.63;;
23868;SDS011;12115;47.128;15.422;2023-05-07T16:03:42;20.67;;;14.02;;
23868;SDS011;12115;47.128;15.422;2023-05-07T16:06:11;18.13;;;16.15;;
23868;SDS011;12115;47.128;15.422;2023-05-07T16:08:38;4.88;;;4.47;;
23868;SDS011;12115;47.128;15.422;2023-05-07T16:11:07;5.57;;;4.97;;
23868;SDS011;12115;47.128;15.422;2023-05-07T16:13:35;5.10;;;4.60;;
23868;SDS011;12115;47.128;15.422;2023-05-07T16:16:03;5.68;;;4.13;;
23868;SDS011;12115;47.128;15.422;2023-05-07T16:18:31;4.55;;;4.15;;
23868;SDS011;12115;47.128;15.422;2023-05-07T16:20:59;5.32;;;3.53;;
23868;SDS011;12115;47.128;15.422;2023-05-07T16:23:27;4.95;;;4.25;;
23868;SDS011;12115;47.128;15.422;2023-05-07T16:25:54;7.95;;;6.47;;
23868;SDS011;12115;47.128;15.422;2023-05-07T16:28:22;5.32;;;4.80;;